Kezdőlap
METAR-TAF:

METAR-TAF

Repülőterek :

Sion, Svájc

földrajzi szélesség: 46-13N, földrajzi hosszúság: 007-20E, magasság: 482 m

Jelenlegi meteorológiai megfigyelések

A jelentés 29 perccel ezelõtt készült, 18:20 UTC
Nyugat-délnyugati szél 8 kt, dél-délnyugati és nyugat-északnyugati között változik
Hőmérséklet 10°C
Páratartalom 43%
Légköri nyomás 1012 hPa
Látótávolság 10 km, vagy több
felhőtlen 1500 m magasságban, és nincs gomolyfelhõ

METAR: LSGS 011820Z AUTO 25008KT 210V290 CAVOK 10/M02 Q1012

Idő: 20:49 (18:49 UTC)

Előrejelzés

A jelentés 4 órával és 24 perccel ezelõtt készült, 14:25 UTC
Az előrejelzés 01-én 15 óra UTC és 01-én 24 óra UTC között érvényes
Nyugati szél 13 kt
Látótávolság 10 km, vagy több
felhőtlen 1500 m magasságban, és nincs gomolyfelhõ
01-én 17 óra UTC és 01-én 19 óra UTC között fokozatosan kialakuló
Különbözõ irányokból fújó szél 3 kt

TAF: LSGS 011425Z 0115/0124 26013KT CAVOK BECMG 0117/0119 VRB03KT

Meteorológiai megfigyelések és előrejelzések több, mint 4000 repülőtéren (METAR és TAF jelentéseket).

A térképen piros és sárga pontok jelzik az elérhető meteorológiai állomásokat.

Mozgassa az egeret a pont fölött, hogy megjelenjen az állomás neve.

Azután kattintson az időjárási megfigyelések és előrejelzések megtekintéséhez.

A térkép megváltoztatása: kattintson a fekete keresztel jelölt zöld gombra ráközelítéshez, a vonallal jelölt zöld gombra távolításhoz, vagy a zöld nyilakra a szomszédos térképek eléréséhez.


METAR-TAF: